Etusivu
METAR-TAF:

METAR-TAF

Lentoasemat :

Kunming Changshuin kansainvälinen lentoasema

Kunming, Kiina

Leveyspiiri: 25-01N, Pituuspiiri: 102-41E, korkeus merenpinnasta: 1892 m

Tämänhetkinen sää

Tämä raportti tehtiin 41 minuuttia sitten, kello 16.00 UTC
Tuuli 14 kn idästä/koillisesta
Lämpötila 16°C
Kosteus 68%
Ilmanpaine 1022 hPa
Näkyvyys 10 km tai enemmän
Hajanaisia pilviä 2300 ft:n korkeudessa
Hajanaisia pilviä 3600 ft:n korkeudessa

METAR: ZPPP 211600Z 06007MPS 9999 SCT023 SCT036 16/10 Q1022 NOSIG

Aika: 00:41 (16:41 UTC)

Sääennuste

Tämä raportti tehtiin 5 tuntia ja 18 minuuttia sitten, kello 11.23 UTC
Ennuste voimassa 21. päivästä klo 12 UTC - 22. päivään klo 12 UTC
Tuuli 12 kn koillisesta
Näkyvyys 10 km tai enemmän
Hajanaisia pilviä 2600 ft:n korkeudessa

TAF: ZPPP 211123Z 2112/2212 04006MPS 9999 SCT026 TX28/2208Z TN17/2123Z

Säähavainnot ja -ennusteet yli 4000 lentoasemalta (METAR- ja TAF-raportit).

Käytössä olevat sääasemat on merkitty karttaan keltaisilla ja punaisilla pisteillä.

Aseta hiiri pisteen päälle nähdäksesi sääaseman nimen.

Klikkaa sitten nähdäksesi säähavainnot ja -ennusteet.

Kartan vaihtaminen: klikkaa mustalla rastilla varustettuja vihreitä pisteitä, niin voit zoomata sisään; viivalla varustettua vihreää pistettä, niin voit zoomata ulos tai vihreitä nuolia, niin pääset viereisille kartoille.


METAR-TAF: